Time;durP1;ratioP1;P1;durP2;ratioP2;P2;SDS_P1;SDS_P2;PMS_P1;PMS_P2;Temp;Humidity;BMP_temperature;BMP_pressure;BME280_temperature;BME280_humidity;BME280_pressure;Samples;Min_cycle;Max_cycle;Signal;HPM_P1;HPM_P2
2023/09/26 00:01:29;;;;;;;1999.90;999.90;;;;;;;10.53;100.00;95152.84;5064086;28;20205;-46
2023/09/26 00:03:54;;;;;;;1999.90;999.90;;;;;;;10.50;100.00;95147.44;5063595;28;20172;-46
2023/09/26 00:06:24;;;;;;;1999.90;999.90;;;;;;;10.47;100.00;95146.28;5064665;28;20192;-50
2023/09/26 00:08:52;;;;;;;1999.90;999.90;;;;;;;10.44;100.00;95144.38;5063944;28;20184;-49
2023/09/26 00:11:18;;;;;;;1999.90;999.90;;;;;;;10.41;100.00;95128.03;5064472;28;20450;-46
2023/09/26 00:13:43;;;;;;;1999.90;999.90;;;;;;;10.33;100.00;95142.94;5064408;28;20206;-48
2023/09/26 00:16:09;;;;;;;1999.90;999.90;;;;;;;10.22;100.00;95134.09;5064067;28;20175;-47
2023/09/26 00:18:35;;;;;;;1999.90;999.90;;;;;;;10.18;100.00;95119.72;5064150;28;20199;-49
2023/09/26 00:21:00;;;;;;;1999.90;999.90;;;;;;;10.14;100.00;95103.41;5063858;28;20213;-49
2023/09/26 00:23:25;;;;;;;1999.90;999.90;;;;;;;10.12;100.00;95110.44;5063873;28;20174;-47
2023/09/26 00:25:51;;;;;;;1999.90;999.90;;;;;;;10.08;100.00;95094.88;5063948;28;20181;-48
2023/09/26 00:28:16;;;;;;;1999.90;999.90;;;;;;;10.11;100.00;95076.94;5063805;28;20167;-50
2023/09/26 00:30:42;;;;;;;1999.90;999.90;;;;;;;10.12;100.00;95070.28;5063982;28;20177;-46
2023/09/26 00:33:08;;;;;;;1999.90;999.90;;;;;;;10.21;100.00;95064.34;5063766;28;20255;-47
2023/09/26 00:35:34;;;;;;;1999.90;999.90;;;;;;;10.31;100.00;95066.16;5064167;28;20163;-52
2023/09/26 00:37:59;;;;;;;1999.90;999.90;;;;;;;10.35;100.00;95059.50;5063638;28;20164;-47
2023/09/26 00:40:25;;;;;;;1999.90;999.90;;;;;;;10.36;100.00;95069.22;5063507;28;20195;-46
2023/09/26 00:42:50;;;;;;;1999.90;999.90;;;;;;;10.40;100.00;95069.94;5063565;28;20331;-47
2023/09/26 00:45:16;;;;;;;1999.90;999.90;;;;;;;10.41;100.00;95070.72;5063724;28;20167;-47
2023/09/26 00:47:43;;;;;;;1999.90;999.90;;;;;;;10.35;100.00;95080.53;5063516;28;20351;-52
2023/09/26 00:50:12;;;;;;;1999.90;999.90;;;;;;;10.35;100.00;95086.00;5064120;28;20168;-48
2023/09/26 00:52:39;;;;;;;1999.90;999.90;;;;;;;10.35;100.00;95088.72;5063981;28;20163;-49
2023/09/26 00:55:05;;;;;;;1999.90;999.90;;;;;;;10.33;100.00;95091.09;5063536;28;20362;-51
2023/09/26 00:57:33;;;;;;;1999.90;999.90;;;;;;;10.34;100.00;95100.84;5063461;28;20232;-48
2023/09/26 01:00:00;;;;;;;1999.90;999.90;;;;;;;10.32;100.00;95097.72;5063390;28;20163;-47
2023/09/26 01:02:26;;;;;;;1999.90;999.90;;;;;;;10.32;100.00;95103.19;5063539;28;20234;-47
2023/09/26 01:04:52;;;;;;;1999.90;999.90;;;;;;;10.32;100.00;95097.72;5063296;28;20244;-46
2023/09/26 01:07:18;;;;;;;1999.90;999.90;;;;;;;10.32;100.00;95103.19;5063890;28;20164;-46
2023/09/26 01:09:43;;;;;;;1999.90;999.90;;;;;;;10.29;100.00;95112.19;5063918;28;20168;-48
2023/09/26 01:12:09;;;;;;;1999.90;999.90;;;;;;;10.27;100.00;95114.56;5063062;28;20171;-49
2023/09/26 01:14:35;;;;;;;1999.90;999.90;;;;;;;10.28;100.00;95113.38;5063337;28;20186;-47
2023/09/26 01:17:00;;;;;;;1999.90;999.90;;;;;;;10.28;100.00;95118.84;5063807;28;20174;-48
2023/09/26 01:19:25;;;;;;;1999.90;999.90;;;;;;;10.23;100.00;95122.03;5063863;28;20245;-47
2023/09/26 01:21:52;;;;;;;1999.90;999.90;;;;;;;10.24;100.00;95126.28;5063338;28;20217;-47
2023/09/26 01:24:17;;;;;;;1999.90;999.90;;;;;;;10.21;100.00;95118.91;5063220;28;20175;-48
2023/09/26 01:26:43;;;;;;;1999.90;999.90;;;;;;;10.19;100.00;95130.22;5063265;28;20231;-48
2023/09/26 01:29:10;;;;;;;1999.90;999.90;;;;;;;10.19;100.00;95127.50;5065955;28;20164;-48
2023/09/26 01:31:36;;;;;;;1999.90;999.90;;;;;;;10.20;100.00;95120.84;5066903;28;20275;-53
2023/09/26 01:34:02;;;;;;;1999.90;999.90;;;;;;;10.21;100.00;95124.38;5066829;28;20164;-51
2023/09/26 01:36:28;;;;;;;1999.90;999.90;;;;;;;10.21;100.00;95116.19;5066769;28;20164;-46
2023/09/26 01:38:54;;;;;;;1999.90;999.90;;;;;;;10.18;100.00;95117.00;5067237;28;20249;-46
2023/09/26 01:41:22;;;;;;;1999.90;999.90;;;;;;;10.18;100.00;95117.00;5066745;28;20199;-50
2023/09/26 01:43:47;;;;;;;1999.90;999.90;;;;;;;10.19;100.00;95118.56;5067339;28;20163;-47
2023/09/26 01:46:12;;;;;;;1999.90;999.90;;;;;;;10.21;100.00;95116.19;5067243;28;20206;-50
2023/09/26 01:48:38;;;;;;;1999.90;999.90;;;;;;;10.19;100.00;95121.28;5067080;28;20166;-47
2023/09/26 01:51:06;;;;;;;1999.90;999.90;;;;;;;10.19;100.00;95126.75;5067049;28;20175;-51
2023/09/26 01:53:31;;;;;;;1999.90;999.90;;;;;;;10.17;100.00;95123.63;5066594;28;20184;-47
2023/09/26 01:56:00;;;;;;;1999.90;999.90;;;;;;;10.13;100.00;95124.44;5066505;28;20194;-48
2023/09/26 01:58:26;;;;;;;1999.90;999.90;;;;;;;10.12;100.00;95132.28;5066477;28;20195;-48
2023/09/26 02:00:51;;;;;;;1999.90;999.90;;;;;;;10.12;100.00;95130.31;5066387;28;20182;-48
2023/09/26 02:03:17;;;;;;;1999.90;999.90;;;;;;;10.13;100.00;95133.81;5066348;28;20241;-49
2023/09/26 02:05:42;;;;;;;1999.90;999.90;;;;;;;10.13;100.00;95139.28;5066372;28;20218;-48
2023/09/26 02:08:08;;;;;;;1999.90;999.90;;;;;;;10.12;100.00;95143.94;5066898;28;20171;-48
2023/09/26 02:10:33;;;;;;;1999.90;999.90;;;;;;;10.09;100.00;95142.81;5066299;28;20173;-53
2023/09/26 02:12:59;;;;;;;1999.90;999.90;;;;;;;10.08;100.00;95151.41;5066243;28;20176;-47
2023/09/26 02:15:24;;;;;;;1999.90;999.90;;;;;;;10.08;100.00;95154.13;5066203;28;20397;-46
2023/09/26 02:17:49;;;;;;;1999.90;999.90;;;;;;;10.09;100.00;95153.72;5066152;28;20208;-48
2023/09/26 02:20:17;;;;;;;1999.90;999.90;;;;;;;10.09;100.00;95161.91;5066496;28;20195;-48
2023/09/26 02:22:49;;;;;;;1999.90;999.90;;;;;;;10.12;100.00;95165.03;5066480;28;20299;-48
2023/09/26 02:25:18;;;;;;;1999.90;999.90;;;;;;;10.13;100.00;95174.75;5066448;28;20172;-47
2023/09/26 02:27:43;;;;;;;1999.90;999.90;;;;;;;10.13;100.00;95183.72;5066491;28;20226;-51
2023/09/26 02:30:11;;;;;;;1999.90;999.90;;;;;;;10.07;100.00;95194.28;5065961;28;20173;-49
2023/09/26 02:32:37;;;;;;;1999.90;999.90;;;;;;;10.04;100.00;95213.38;5065756;28;20170;-47
2023/09/26 02:35:04;;;;;;;1999.90;999.90;;;;;;;10.05;100.00;95213.00;5065810;28;20355;-46
2023/09/26 02:37:29;;;;;;;1999.90;999.90;;;;;;;10.05;100.00;95215.72;5065750;28;20167;-48
2023/09/26 02:39:54;;;;;;;1999.90;999.90;;;;;;;10.08;100.00;95220.38;5064750;28;20178;-48
2023/09/26 02:42:20;;;;;;;1999.90;999.90;;;;;;;10.10;100.00;95214.53;5065689;28;20171;-46
2023/09/26 02:44:45;;;;;;;1999.90;999.90;;;;;;;10.10;100.00;95223.47;5065834;28;20331;-46
2023/09/26 02:47:10;;;;;;;1999.90;999.90;;;;;;;10.13;100.00;95221.13;5065587;28;20173;-51
2023/09/26 02:49:36;;;;;;;1999.90;999.90;;;;;;;10.13;100.00;95221.13;5066283;28;20172;-48
2023/09/26 02:52:02;;;;;;;1999.90;999.90;;;;;;;10.12;100.00;95230.50;5066223;28;20180;-46
2023/09/26 02:54:28;;;;;;;1999.90;999.90;;;;;;;10.07;100.00;95235.22;5065527;28;20244;-47
2023/09/26 02:56:53;;;;;;;1999.90;999.90;;;;;;;10.06;100.00;95247.28;5065207;28;20201;-46
2023/09/26 02:59:18;;;;;;;1999.90;999.90;;;;;;;10.10;100.00;95239.84;5065600;28;20204;-47
2023/09/26 03:01:44;;;;;;;1999.90;999.90;;;;;;;10.10;100.00;95233.63;5065162;28;20207;-49
2023/09/26 03:04:09;;;;;;;1999.90;999.90;;;;;;;10.10;100.00;95239.09;5065117;28;20227;-47
2023/09/26 03:06:34;;;;;;;1999.90;999.90;;;;;;;10.09;100.00;95232.06;5065106;28;20176;-54
2023/09/26 03:09:00;;;;;;;1999.90;999.90;;;;;;;10.10;100.00;95237.09;5065943;28;20173;-50
2023/09/26 03:11:25;;;;;;;1999.90;999.90;;;;;;;10.06;100.00;95233.63;5065581;28;20195;-50
2023/09/26 03:13:50;;;;;;;1999.90;999.90;;;;;;;10.02;100.00;95232.88;5065503;28;20172;-47
2023/09/26 03:16:16;;;;;;;1999.90;999.90;;;;;;;10.01;100.00;95231.31;5065498;28;20183;-49
2023/09/26 03:18:41;;;;;;;1999.90;999.90;;;;;;;9.99;100.00;95230.94;5065710;28;20238;-48
2023/09/26 03:21:07;;;;;;;1999.90;999.90;;;;;;;10.01;100.00;95217.69;5064818;28;20196;-50
2023/09/26 03:23:33;;;;;;;1999.90;999.90;;;;;;;10.01;100.00;95220.41;5065000;28;20168;-48
2023/09/26 03:25:59;;;;;;;1999.90;999.90;;;;;;;10.00;100.00;95224.34;5065262;28;20172;-46
2023/09/26 03:28:24;;;;;;;1999.90;999.90;;;;;;;9.95;100.00;95224.75;5064820;28;20218;-46
2023/09/26 03:30:50;;;;;;;1999.90;999.90;;;;;;;9.91;100.00;95226.72;5064535;28;20210;-48
2023/09/26 03:33:15;;;;;;;1999.90;999.90;;;;;;;9.87;100.00;95228.72;5064730;28;20195;-47
2023/09/26 03:35:40;;;;;;;1999.90;999.90;;;;;;;9.85;100.00;95225.63;5064458;28;20393;-48
2023/09/26 03:38:06;;;;;;;1999.90;999.90;;;;;;;9.78;100.00;95236.59;5064623;28;20174;-48
2023/09/26 03:40:31;;;;;;;1999.90;999.90;;;;;;;9.74;100.00;95235.84;5064477;28;20187;-47
2023/09/26 03:42:57;;;;;;;1999.90;999.90;;;;;;;9.66;100.00;95231.59;5064780;28;20174;-49
2023/09/26 03:45:23;;;;;;;1999.90;999.90;;;;;;;9.58;100.00;95251.91;5064365;28;20168;-46
2023/09/26 03:47:49;;;;;;;1999.90;999.90;;;;;;;9.58;100.00;95251.91;5064627;28;20171;-50
2023/09/26 03:50:15;;;;;;;1999.90;999.90;;;;;;;9.46;100.00;95249.66;5064970;28;20229;-47
2023/09/26 03:52:40;;;;;;;1999.90;999.90;;;;;;;9.42;100.00;95243.47;5064796;28;20220;-50
2023/09/26 03:55:06;;;;;;;1999.90;999.90;;;;;;;9.42;100.00;95248.13;5064218;28;20374;-50
2023/09/26 03:57:33;;;;;;;1999.90;999.90;;;;;;;9.42;100.00;95243.47;5063783;28;20204;-46
2023/09/26 03:59:59;;;;;;;1999.90;999.90;;;;;;;9.42;100.00;95237.22;5064097;28;20178;-48
2023/09/26 04:02:24;;;;;;;1999.90;999.90;;;;;;;9.42;100.00;95237.22;5064256;28;20173;-47
2023/09/26 04:04:49;;;;;;;1999.90;999.90;;;;;;;9.39;100.00;95232.56;5063755;28;20240;-48
2023/09/26 04:07:15;;;;;;;1999.90;999.90;;;;;;;9.37;100.00;95230.25;5064109;28;20170;-45
2023/09/26 04:09:40;;;;;;;1999.90;999.90;;;;;;;9.36;100.00;95223.25;5064466;28;20167;-45
2023/09/26 04:12:06;;;;;;;1999.90;999.90;;;;;;;9.35;100.00;95210.03;5063924;28;20197;-54
2023/09/26 04:14:32;;;;;;;1999.90;999.90;;;;;;;9.36;100.00;95211.59;5064104;28;20172;-47
2023/09/26 04:16:57;;;;;;;1999.90;999.90;;;;;;;9.37;100.00;95196.78;5064375;28;20169;-45
2023/09/26 04:19:23;;;;;;;1999.90;999.90;;;;;;;9.38;100.00;95193.66;5064442;28;20189;-47
2023/09/26 04:21:48;;;;;;;1999.90;999.90;;;;;;;9.39;100.00;95189.75;5063728;28;20217;-47
2023/09/26 04:24:14;;;;;;;1999.90;999.90;;;;;;;9.39;100.00;95188.97;5063913;28;20168;-46
2023/09/26 04:26:40;;;;;;;1999.90;999.90;;;;;;;9.40;100.00;95185.09;5063690;28;20175;-46
2023/09/26 04:29:06;;;;;;;1999.90;999.90;;;;;;;9.39;100.00;95173.41;5063769;28;20235;-50
2023/09/26 04:31:31;;;;;;;1999.90;999.90;;;;;;;9.43;100.00;95179.59;5063743;28;20169;-46
2023/09/26 04:33:57;;;;;;;1999.90;999.90;;;;;;;9.42;100.00;95167.16;5064219;28;20342;-47
2023/09/26 04:36:22;;;;;;;1999.90;999.90;;;;;;;9.39;100.00;95167.97;5063613;28;20362;-46
2023/09/26 04:38:48;;;;;;;1999.90;999.90;;;;;;;9.39;100.00;95167.16;5063968;28;20166;-45
2023/09/26 04:41:14;;;;;;;1999.90;999.90;;;;;;;9.38;100.00;95155.50;5063870;28;20264;-46
2023/09/26 04:43:40;;;;;;;1999.90;999.90;;;;;;;9.38;100.00;95144.63;5064135;28;20174;-45
2023/09/26 04:46:12;;;;;;;1999.90;999.90;;;;;;;9.38;100.00;95144.63;5063541;28;20339;-47
2023/09/26 04:48:42;;;;;;;1999.90;999.90;;;;;;;9.33;100.00;95153.19;5064128;28;20188;-49
2023/09/26 04:51:08;;;;;;;1999.90;999.90;;;;;;;9.28;100.00;95152.84;5063588;28;20166;-45
2023/09/26 04:53:34;;;;;;;1999.90;999.90;;;;;;;9.27;100.00;95154.81;5063270;28;20348;-46
2023/09/26 04:56:01;;;;;;;1999.90;999.90;;;;;;;9.24;100.00;95165.72;5063980;28;20219;-49
2023/09/26 04:58:29;;;;;;;1999.90;999.90;;;;;;;9.24;100.00;95155.63;5063495;28;20187;-47
2023/09/26 05:00:54;;;;;;;1999.90;999.90;;;;;;;9.24;100.00;95163.00;5063262;28;20191;-49
2023/09/26 05:03:19;;;;;;;1999.90;999.90;;;;;;;9.21;100.00;95167.31;5064943;28;20178;-44
2023/09/26 05:05:45;;;;;;;1999.90;999.90;;;;;;;9.20;100.00;95167.69;5066944;28;20229;-50
2023/09/26 05:08:10;;;;;;;1999.90;999.90;;;;;;;9.17;100.00;95177.44;5067464;28;20364;-47
2023/09/26 05:10:37;;;;;;;1999.90;999.90;;;;;;;9.18;100.00;95189.91;5067298;28;20405;-47
2023/09/26 05:13:03;;;;;;;1999.90;999.90;;;;;;;9.16;100.00;95192.25;5067334;28;20170;-45
2023/09/26 05:15:28;;;;;;;1999.90;999.90;;;;;;;9.24;100.00;95193.75;5067155;28;20174;-49
2023/09/26 05:17:53;;;;;;;1999.90;999.90;;;;;;;9.37;100.00;95183.91;5067226;28;20177;-46
2023/09/26 05:20:19;;;;;;;1999.90;999.90;;;;;;;9.57;100.00;95178.72;5067473;28;20448;-45
2023/09/26 05:22:47;;;;;;;1999.90;999.90;;;;;;;9.82;100.00;95174.63;5067066;28;20181;-47
2023/09/26 05:25:13;;;;;;;1999.90;999.90;;;;;;;10.02;100.00;95175.59;5067038;28;20189;-45
2023/09/26 05:27:39;;;;;;;1999.90;999.90;;;;;;;10.25;100.00;95185.13;5066783;28;20186;-45
2023/09/26 05:30:09;;;;;;;1999.90;999.90;;;;;;;10.51;100.00;95209.03;5066872;28;20174;-46
2023/09/26 05:32:35;;;;;;;1999.90;999.90;;;;;;;10.73;100.00;95234.91;5066912;28;20215;-50
2023/09/26 05:35:00;;;;;;;1999.90;999.90;;;;;;;10.99;100.00;95258.78;5067326;28;20176;-46
2023/09/26 05:37:26;;;;;;;1999.90;999.90;;;;;;;11.08;100.00;95287.19;5067453;28;20176;-46
2023/09/26 05:39:51;;;;;;;1999.90;999.90;;;;;;;11.34;100.00;95322.03;5066920;28;20183;-47
2023/09/26 05:42:16;;;;;;;1999.90;999.90;;;;;;;11.69;100.00;95372.78;5066675;28;20240;-46
2023/09/26 05:44:42;;;;;;;1999.90;999.90;;;;;;;12.29;100.00;95408.31;5066548;28;20183;-46
2023/09/26 05:47:07;;;;;;;1999.90;999.90;;;;;;;12.75;100.00;95479.63;5067006;28;20240;-49
2023/09/26 05:49:33;;;;;;;1999.90;999.90;;;;;;;13.23;100.00;95548.63;5066551;28;20178;-48
2023/09/26 05:51:58;;;;;;;1999.90;999.90;;;;;;;13.73;100.00;95619.91;5066706;28;20245;-51
2023/09/26 05:54:23;;;;;;;1999.90;999.90;;;;;;;14.65;100.00;95697.56;5067088;28;20174;-51
2023/09/26 05:56:49;;;;;;;1999.90;999.90;;;;;;;15.29;100.00;95763.84;5066417;28;20178;-51
2023/09/26 05:59:14;;;;;;;1999.90;999.90;;;;;;;15.83;100.00;95802.84;5066405;28;20250;-51
2023/09/26 06:01:39;;;;;;;1999.90;999.90;;;;;;;16.12;100.00;95832.13;5066211;28;20232;-47
2023/09/26 06:04:05;;;;;;;1999.90;999.90;;;;;;;16.28;100.00;95839.63;5066139;28;20228;-50
2023/09/26 06:06:33;;;;;;;1999.90;999.90;;;;;;;16.96;100.00;95847.84;5066766;28;20170;-48
2023/09/26 06:08:59;;;;;;;1999.90;999.90;;;;;;;17.39;100.00;95851.03;5066731;28;20245;-53
2023/09/26 06:11:24;;;;;;;1999.90;999.90;;;;;;;18.11;100.00;95846.63;5066217;28;20181;-52
2023/09/26 06:13:52;;;;;;;1999.90;999.90;;;;;;;18.51;100.00;95856.84;5066224;28;20245;-47
2023/09/26 06:16:21;;;;;;;1999.90;999.90;;;;;;;18.87;100.00;95848.97;5065847;28;20178;-47
2023/09/26 06:18:49;;;;;;;1999.90;999.90;;;;;;;19.18;100.00;95857.41;5065630;28;20201;-46
2023/09/26 06:21:14;;;;;;;1999.90;999.90;;;;;;;19.25;100.00;95854.44;5066155;28;20251;-50
2023/09/26 06:23:41;;;;;;;1999.90;999.90;;;;;;;19.60;100.00;95853.22;5066465;28;20174;-48
2023/09/26 06:26:07;;;;;;;1999.90;999.90;;;;;;;19.69;100.00;95858.03;5066365;28;20181;-48
2023/09/26 06:28:33;;;;;;;1999.90;999.90;;;;;;;19.73;100.00;95853.91;5066367;28;20177;-52
2023/09/26 06:31:09;;;;;;;1999.90;999.90;;;;;;;20.00;100.00;95856.09;5065835;28;20174;-48
2023/09/26 06:33:35;;;;;;;1999.90;999.90;;;;;;;20.45;100.00;95859.94;5066257;28;20174;-52
2023/09/26 06:36:01;;;;;;;1999.90;999.90;;;;;;;20.59;100.00;95853.81;5065700;28;20181;-50
2023/09/26 06:38:28;;;;;;;1999.90;999.90;;;;;;;20.74;100.00;95854.81;5066121;28;20174;-48
2023/09/26 06:41:05;;;;;;;1999.90;999.90;;;;;;;20.90;100.00;95851.75;5065927;28;20197;-48
2023/09/26 06:43:30;;;;;;;1999.90;999.90;;;;;;;21.26;100.00;95856.63;5065200;28;20177;-53
2023/09/26 06:45:56;;;;;;;1999.90;999.90;;;;;;;21.47;100.00;95855.75;5066264;28;20339;-50
2023/09/26 06:48:21;;;;;;;1999.90;999.90;;;;;;;21.11;100.00;95858.47;5065709;28;20194;-53
2023/09/26 06:50:47;;;;;;;1999.90;999.90;;;;;;;21.04;100.00;95862.31;5066031;28;20177;-53
2023/09/26 06:53:12;;;;;;;1999.90;999.90;;;;;;;21.45;100.00;95861.00;5065402;28;20170;-53
2023/09/26 06:55:39;;;;;;;1999.90;999.90;;;;;;;21.04;100.00;95862.31;5065570;28;20170;-51
2023/09/26 06:58:08;;;;;;;1999.90;999.90;;;;;;;21.20;100.00;95864.06;5066070;28;20198;-47
2023/09/26 07:00:40;;;;;;;1999.90;999.90;;;;;;;21.30;100.00;95863.59;5065567;28;20213;-48
2023/09/26 07:03:05;;;;;;;1999.90;999.90;;;;;;;21.36;100.00;95860.97;5065676;28;20192;-51
2023/09/26 07:05:31;;;;;;;1999.90;999.90;;;;;;;21.39;100.00;95855.28;5065118;28;20217;-47
2023/09/26 07:07:57;;;;;;;1999.90;999.90;;;;;;;21.50;100.00;95861.16;5064781;28;20178;-47
2023/09/26 07:10:23;;;;;;;1999.90;999.90;;;;;;;21.66;100.00;95858.06;5065550;28;20173;-51
2023/09/26 07:12:49;;;;;;;1999.90;999.90;;;;;;;21.91;100.00;95854.22;5064628;28;20170;-48
2023/09/26 07:15:14;;;;;;;1999.90;999.90;;;;;;;21.95;100.00;95852.03;5064972;28;20177;-51
2023/09/26 07:17:40;;;;;;;1999.90;999.90;;;;;;;21.87;100.00;95859.94;5065447;28;20177;-47
2023/09/26 07:20:13;;;;;;;1999.90;999.90;;;;;;;22.39;100.00;95862.31;5065370;28;20169;-50
2023/09/26 07:22:38;;;;;;;1999.90;999.90;;;;;;;22.70;100.00;95859.28;5065370;28;20185;-50
2023/09/26 07:25:04;;;;;;;1999.90;999.90;;;;;;;22.31;100.00;95858.31;5064861;28;20203;-49
2023/09/26 07:27:30;;;;;;;1999.90;999.90;;;;;;;22.88;100.00;95862.00;5064405;28;20173;-50
2023/09/26 07:29:56;;;;;;;1999.90;999.90;;;;;;;22.44;100.00;95867.22;5065225;28;20232;-52
2023/09/26 07:32:21;;;;;;;1999.90;999.90;;;;;;;22.44;100.00;95869.25;5064701;28;20174;-47
2023/09/26 07:34:47;;;;;;;1999.90;999.90;;;;;;;23.04;100.00;95860.81;5064700;28;20256;-49
2023/09/26 07:37:12;;;;;;;1999.90;999.90;;;;;;;23.00;100.00;95865.78;5065124;28;20170;-49
2023/09/26 07:39:37;;;;;;;1999.90;999.90;;;;;;;23.37;100.00;95865.16;5065232;28;20170;-49
2023/09/26 07:42:03;;;;;;;1999.90;999.90;;;;;;;23.70;100.00;95862.25;5064639;28;20201;-49
2023/09/26 07:44:29;;;;;;;1999.90;999.90;;;;;;;23.99;100.00;95865.13;5064970;28;20170;-49
2023/09/26 07:46:55;;;;;;;1999.90;999.90;;;;;;;24.15;100.00;95864.69;5064475;28;20207;-47
2023/09/26 07:49:20;;;;;;;1999.90;999.90;;;;;;;24.65;100.00;95872.69;5065039;28;20193;-47
2023/09/26 07:51:48;;;;;;;1999.90;999.90;;;;;;;24.38;100.00;95869.41;5065014;28;20272;-49
2023/09/26 07:54:13;;;;;;;1999.90;999.90;;;;;;;25.00;100.00;95869.94;5064303;28;20235;-47
2023/09/26 07:56:38;;;;;;;1999.90;999.90;;;;;;;24.83;100.00;95866.13;5064119;28;20189;-50
2023/09/26 07:59:04;;;;;;;1999.90;999.90;;;;;;;24.74;100.00;95871.84;5064124;28;20249;-47
2023/09/26 08:01:29;;;;;;;1999.90;999.90;;;;;;;24.77;100.00;95879.25;5064151;28;20197;-50
2023/09/26 08:03:54;;;;;;;1999.90;999.90;;;;;;;24.99;100.00;95874.75;5064419;28;20170;-47
2023/09/26 08:06:20;;;;;;;1999.90;999.90;;;;;;;25.36;100.00;95875.06;5063774;28;20167;-52
2023/09/26 08:08:46;;;;;;;1999.90;999.90;;;;;;;25.48;100.00;95871.16;5064537;28;20241;-51
2023/09/26 08:11:12;;;;;;;1999.90;999.90;;;;;;;25.56;100.00;95877.88;5064042;28;20208;-51
2023/09/26 08:13:41;;;;;;;1999.90;999.90;;;;;;;25.09;100.00;95875.41;5063973;28;20200;-48
2023/09/26 08:16:07;;;;;;;1999.90;999.90;;;;;;;25.01;100.00;95877.06;5063917;28;20170;-50
2023/09/26 08:18:33;;;;;;;1999.90;999.90;;;;;;;25.69;100.00;95881.09;5064396;28;20176;-51
2023/09/26 08:20:58;;;;;;;1999.90;999.90;;;;;;;26.19;100.00;95876.88;5064381;28;20206;-51
2023/09/26 08:23:25;;;;;;;1999.90;999.90;;;;;;;26.32;100.00;95877.25;5064419;28;20174;-51
2023/09/26 08:26:16;;;;;;;1999.90;999.90;;;;;;;27.01;100.00;95876.88;5063818;28;20169;-50
2023/09/26 08:28:42;;;;;;;1999.90;999.90;;;;;;;27.49;100.00;95872.09;5059174;28;20201;-51
2023/09/26 08:31:10;;;;;;;1999.90;999.90;;;;;;;27.82;100.00;95883.47;5064398;28;20170;-46
2023/09/26 08:33:37;;;;;;;1999.90;999.90;;;;;;;27.72;100.00;95882.16;5064214;28;20240;-45
2023/09/26 08:36:05;;;;;;;1999.90;999.90;;;;;;;28.24;96.68;95874.19;5062858;28;20170;-45
2023/09/26 08:38:30;;;;;;;1999.90;999.90;;;;;;;27.94;96.98;95885.09;5063239;28;20188;-49
2023/09/26 08:40:57;;;;;;;1999.90;999.90;;;;;;;28.45;97.39;95872.75;5064186;28;20213;-46
2023/09/26 08:43:24;;;;;;;1999.90;999.90;;;;;;;28.45;97.39;95872.75;5063778;28;20165;-47
2023/09/26 08:45:50;;;;;;;1999.90;999.90;;;;;;;29.13;91.12;95869.47;5063594;28;20165;-52
2023/09/26 08:48:15;;;;;;;1999.90;999.90;;;;;;;29.06;88.44;95870.72;5063651;28;20174;-47
2023/09/26 08:50:41;;;;;;;1999.90;999.90;;;;;;;29.33;91.69;95869.94;5063581;28;20166;-57
2023/09/26 08:53:06;;;;;;;1999.90;999.90;;;;;;;29.48;84.29;95866.81;5063275;28;20176;-51
2023/09/26 08:55:33;;;;;;;1999.90;999.90;;;;;;;28.92;82.73;95870.97;5063989;28;20237;-51
2023/09/26 08:57:58;;;;;;;1999.90;999.90;;;;;;;28.27;93.30;95868.31;5063525;28;20197;-51
2023/09/26 09:00:26;;;;;;;1999.90;999.90;;;;;;;28.46;87.74;95870.69;5063864;28;20241;-50
2023/09/26 09:02:51;;;;;;;1999.90;999.90;;;;;;;28.83;92.72;95868.41;5063941;28;20169;-49
2023/09/26 09:05:21;;;;;;;1999.90;999.90;;;;;;;29.08;85.99;95861.78;5063312;28;20214;-45
2023/09/26 09:07:47;;;;;;;1999.90;999.90;;;;;;;28.87;89.88;95863.31;5063400;28;20181;-52
2023/09/26 09:10:16;;;;;;;1999.90;999.90;;;;;;;28.24;93.70;95863.75;5063368;28;20212;-53
2023/09/26 09:12:44;;;;;;;1999.90;999.90;;;;;;;28.33;93.66;95854.28;5063876;28;20173;-54
2023/09/26 09:15:15;;;;;;;1999.90;999.90;;;;;;;29.05;89.84;95857.94;5063362;28;20237;-51
2023/09/26 09:17:47;;;;;;;1999.90;999.90;;;;;;;28.20;92.87;95863.22;5063150;28;20220;-50
2023/09/26 09:20:17;;;;;;;1999.90;999.90;;;;;;;28.29;93.86;95860.16;5063742;28;20205;-52
2023/09/26 09:22:49;;;;;;;1999.90;999.90;;;;;;;28.34;96.40;95856.59;5063136;28;20181;-55
2023/09/26 09:25:16;;;;;;;1999.90;999.90;;;;;;;29.18;89.35;95854.59;5064026;28;20318;-55
2023/09/26 09:27:43;;;;;;;1999.90;999.90;;;;;;;29.02;92.01;95849.78;5063612;28;20170;-54
2023/09/26 09:30:12;;;;;;;1999.90;999.90;;;;;;;28.91;88.65;95846.94;5063046;28;20178;-56
2023/09/26 09:32:44;;;;;;;1999.90;999.90;;;;;;;28.83;91.01;95846.69;5063169;28;20242;-52
2023/09/26 09:35:15;;;;;;;1999.90;999.90;;;;;;;28.76;92.30;95843.63;5063542;28;20170;-55
2023/09/26 09:37:46;;;;;;;1999.90;999.90;;;;;;;28.38;91.96;95840.22;5063704;28;20167;-53
2023/09/26 09:40:20;;;;;;;1999.90;999.90;;;;;;;28.44;93.93;95847.97;5063633;28;20174;-54
2023/09/26 09:42:50;;;;;;;1999.90;999.90;;;;;;;28.25;99.72;95842.78;5063744;28;20177;-49
2023/09/26 09:45:19;;;;;;;1999.90;999.90;;;;;;;28.52;98.89;95846.16;5063067;28;20177;-49
2023/09/26 09:47:46;;;;;;;1999.90;999.90;;;;;;;29.51;90.10;95843.25;5063467;28;20174;-52
2023/09/26 09:50:13;;;;;;;1999.90;999.90;;;;;;;29.09;88.58;95832.38;5065586;28;20170;-50
2023/09/26 09:52:43;;;;;;;1999.90;999.90;;;;;;;28.60;94.97;95841.56;5066551;28;20170;-51
2023/09/26 09:55:13;;;;;;;1999.90;999.90;;;;;;;28.90;94.65;95834.13;5066614;28;20174;-51
2023/09/26 09:57:44;;;;;;;1999.90;999.90;;;;;;;28.79;95.11;95843.38;5066370;28;20194;-54
2023/09/26 10:00:11;;;;;;;1999.90;999.90;;;;;;;28.76;92.36;95829.56;5066424;28;20190;-53
2023/09/26 10:02:37;;;;;;;1999.90;999.90;;;;;;;28.72;90.90;95840.28;5066417;28;20165;-50
2023/09/26 10:05:06;;;;;;;1999.90;999.90;;;;;;;28.41;94.54;95837.69;5066250;28;20217;-51
2023/09/26 10:07:33;;;;;;;1999.90;999.90;;;;;;;28.61;94.83;95835.44;5066435;28;20170;-55
2023/09/26 10:10:00;;;;;;;1999.90;999.90;;;;;;;28.53;91.68;95828.00;5066159;28;20177;-52
2023/09/26 10:12:27;;;;;;;1999.90;999.90;;;;;;;28.36;93.79;95830.03;5065859;28;20177;-48
2023/09/26 10:14:55;;;;;;;1999.90;999.90;;;;;;;28.04;99.96;95826.63;5066607;28;20165;-48
2023/09/26 10:17:20;;;;;;;1999.90;999.90;;;;;;;28.41;94.96;95826.44;5066257;28;20173;-55
2023/09/26 10:19:46;;;;;;;1999.90;999.90;;;;;;;28.72;91.68;95831.84;5066767;28;20170;-53
2023/09/26 10:22:21;;;;;;;1999.90;999.90;;;;;;;28.41;95.65;95832.84;5065850;28;20201;-50
2023/09/26 10:24:52;;;;;;;1999.90;999.90;;;;;;;28.55;90.43;95825.47;5066719;28;20237;-48
2023/09/26 10:27:38;;;;;;;1999.90;999.90;;;;;;;28.18;93.88;95826.41;5066785;28;20166;-50
2023/09/26 10:30:06;;;;;;;1999.90;999.90;;;;;;;28.20;94.36;95823.88;5066315;28;20170;-48
2023/09/26 10:32:37;;;;;;;1999.90;999.90;;;;;;;27.19;100.00;95831.59;5066300;28;20174;-48
2023/09/26 10:35:23;;;;;;;1999.90;999.90;;;;;;;27.25;100.00;95828.84;5065747;28;20177;-50
2023/09/26 10:37:52;;;;;;;1999.90;999.90;;;;;;;27.56;100.00;95831.53;5065871;28;20166;-51
2023/09/26 10:40:18;;;;;;;1999.90;999.90;;;;;;;26.36;100.00;95821.03;5066085;28;20197;-49
2023/09/26 10:42:46;;;;;;;1999.90;999.90;;;;;;;27.04;100.00;95825.38;5066108;28;20166;-50
2023/09/26 10:45:13;;;;;;;1999.90;999.90;;;;;;;27.16;100.00;95821.38;5065899;28;20259;-48
2023/09/26 10:47:40;;;;;;;1999.90;999.90;;;;;;;27.34;100.00;95818.19;5065532;28;20166;-47